Time;durP1;ratioP1;P1;durP2;ratioP2;P2;SDS_P1;SDS_P2;PMS_P1;PMS_P2;Temp;Humidity;BMP_temperature;BMP_pressure;BME280_temperature;BME280_humidity;BME280_pressure;Samples;Min_cycle;Max_cycle;Signal;HPM_P1;HPM_P2
2021/05/28 00:02:13;;;;;;;4.63;4.20;;;11.40;99.90;;;;;;5071044;28;20629;-69
2021/05/28 00:04:41;;;;;;;3.50;3.20;;;11.40;99.90;;;;;;5070894;28;20227;-68
2021/05/28 00:07:07;;;;;;;3.23;2.50;;;11.40;99.90;;;;;;5052808;28;20215;-69
2021/05/28 00:09:32;;;;;;;2.73;2.53;;;11.40;99.90;;;;;;5071561;28;20169;-68
2021/05/28 00:11:58;;;;;;;3.10;2.80;;;11.40;99.90;;;;;;5073496;28;20173;-67
2021/05/28 00:14:24;;;;;;;2.87;2.37;;;11.40;99.90;;;;;;5072099;28;20559;-69
2021/05/28 00:16:49;;;;;;;2.10;1.80;;;11.40;99.90;;;;;;5071856;28;20264;-69
2021/05/28 00:19:15;;;;;;;2.30;1.90;;;11.40;99.90;;;;;;5053608;28;20204;-69
2021/05/28 00:21:40;;;;;;;2.80;1.50;;;11.50;99.90;;;;;;5071250;28;20168;-69
2021/05/28 00:24:06;;;;;;;1.43;1.33;;;11.50;99.90;;;;;;5071164;28;20741;-68
2021/05/28 00:26:32;;;;;;;3.00;1.63;;;11.40;99.90;;;;;;5071267;28;20192;-67
2021/05/28 00:28:57;;;;;;;1.60;1.47;;;11.50;99.90;;;;;;5070995;28;20514;-68
2021/05/28 00:31:23;;;;;;;3.30;1.30;;;11.50;99.90;;;;;;5071448;28;20165;-68
2021/05/28 00:33:49;;;;;;;2.70;1.57;;;11.50;99.90;;;;;;5070836;28;20246;-69
2021/05/28 00:36:15;;;;;;;1.67;1.57;;;11.50;99.90;;;;;;5071371;28;20173;-69
2021/05/28 00:38:40;;;;;;;2.50;1.80;;;11.50;99.90;;;;;;5071292;28;20177;-67
2021/05/28 00:41:06;;;;;;;2.37;1.53;;;11.50;99.90;;;;;;5071149;28;20185;-70
2021/05/28 00:43:31;;;;;;;2.17;1.50;;;11.50;99.90;;;;;;5071140;28;20389;-68
2021/05/28 00:45:57;;;;;;;2.57;1.70;;;11.50;99.90;;;;;;5071044;28;20181;-68
2021/05/28 00:48:23;;;;;;;1.53;1.40;;;11.50;99.90;;;;;;5071591;28;20562;-68
2021/05/28 00:50:49;;;;;;;1.43;1.33;;;11.40;99.90;;;;;;5070994;28;20545;-68
2021/05/28 00:53:15;;;;;;;3.17;1.73;;;11.30;99.90;;;;;;5071245;28;20172;-69
2021/05/28 00:55:41;;;;;;;3.57;1.63;;;11.30;99.90;;;;;;5071076;28;20230;-68
2021/05/28 00:58:07;;;;;;;3.73;1.57;;;11.30;99.90;;;;;;5052925;28;20185;-69
2021/05/28 01:00:33;;;;;;;2.27;1.70;;;11.20;99.90;;;;;;5070705;28;20180;-67
2021/05/28 01:02:58;;;;;;;1.50;1.40;;;11.20;99.90;;;;;;5053125;28;20169;-69
2021/05/28 01:05:24;;;;;;;2.10;1.50;;;11.20;99.90;;;;;;5101299;22;20242;-70
2021/05/28 01:07:50;;;;;;;2.60;1.70;;;11.20;99.90;;;;;;5073766;28;20204;-70
2021/05/28 01:10:15;;;;;;;5.23;2.13;;;11.10;99.90;;;;;;5055145;28;20268;-70
2021/05/28 01:12:42;;;;;;;5.07;1.80;;;11.10;99.90;;;;;;5073720;28;20166;-70
2021/05/28 01:15:09;;;;;;;4.03;1.87;;;11.20;99.90;;;;;;5079806;28;20177;-70
2021/05/28 01:17:35;;;;;;;2.77;2.10;;;11.20;99.90;;;;;;5083184;28;20259;-70
2021/05/28 01:20:02;;;;;;;4.47;1.70;;;11.20;99.90;;;;;;5068399;28;20205;-70
2021/05/28 01:22:27;;;;;;;3.47;1.93;;;11.20;99.90;;;;;;5090559;28;20174;-70
2021/05/28 01:24:53;;;;;;;3.67;2.03;;;11.20;99.90;;;;;;5092484;28;20257;-71
2021/05/28 01:27:18;;;;;;;3.23;2.20;;;11.20;99.90;;;;;;5093013;28;20247;-71
2021/05/28 01:29:45;;;;;;;4.13;2.00;;;11.20;99.90;;;;;;5091108;28;20180;-71
2021/05/28 01:32:10;;;;;;;4.20;2.53;;;11.20;99.90;;;;;;5091436;28;20187;-71
2021/05/28 01:34:36;;;;;;;5.47;2.27;;;11.20;99.90;;;;;;5075155;28;20193;-70
2021/05/28 01:37:02;;;;;;;3.97;2.67;;;11.20;99.90;;;;;;5074155;28;20634;-69
2021/05/28 01:39:28;;;;;;;2.50;2.10;;;11.20;99.90;;;;;;5074832;28;20559;-70
2021/05/28 01:55:21;;;;;;;2.60;2.40;;;11.10;99.90;;;;;;5071859;28;20511;-71
2021/05/28 01:57:47;;;;;;;4.87;2.50;;;11.10;99.90;;;;;;5073726;28;20177;-71
2021/05/28 02:00:15;;;;;;;3.33;2.60;;;11.10;99.90;;;;;;5073782;28;20177;-71
2021/05/28 02:02:41;;;;;;;6.90;2.80;;;11.10;99.90;;;;;;5073640;28;20187;-71
2021/05/28 02:05:08;;;;;;;3.60;2.80;;;11.20;99.90;;;;;;5073519;28;20208;-71
2021/05/28 02:07:34;;;;;;;4.03;2.50;;;11.20;99.90;;;;;;5073726;28;20193;-71
2021/05/28 02:09:59;;;;;;;4.63;2.83;;;11.20;99.90;;;;;;5073401;28;20218;-71
2021/05/28 02:12:25;;;;;;;2.70;2.40;;;11.20;99.90;;;;;;5073039;28;20621;-71
2021/05/28 02:14:55;;;;;;;4.33;2.73;;;11.20;99.90;;;;;;5073160;28;20185;-71
2021/05/28 02:17:21;;;;;;;4.00;3.00;;;11.30;99.90;;;;;;5074492;28;20169;-72
2021/05/28 02:19:46;;;;;;;7.93;2.97;;;11.30;99.90;;;;;;5073822;28;20180;-71
2021/05/28 02:22:12;;;;;;;6.50;2.87;;;11.20;99.90;;;;;;5038616;28;20256;-71
2021/05/28 02:24:38;;;;;;;3.73;2.60;;;11.30;99.90;;;;;;5072978;28;20653;-71
2021/05/28 02:27:04;;;;;;;4.10;2.93;;;11.20;99.90;;;;;;5073663;28;20201;-72
2021/05/28 02:29:30;;;;;;;5.00;3.00;;;11.20;99.90;;;;;;5072351;28;20165;-71
2021/05/28 02:31:55;;;;;;;5.70;3.27;;;11.20;99.90;;;;;;5072924;28;20493;-71
2021/05/28 02:34:21;;;;;;;6.47;3.10;;;11.20;99.90;;;;;;5072916;28;20235;-72
2021/05/28 02:36:47;;;;;;;4.73;2.90;;;11.20;99.90;;;;;;5073203;28;20319;-71
2021/05/28 02:39:12;;;;;;;6.90;2.90;;;11.20;99.90;;;;;;5073072;28;20165;-71
2021/05/28 02:41:38;;;;;;;6.03;3.20;;;11.10;99.90;;;;;;5072609;28;20180;-72
2021/05/28 02:44:04;;;;;;;4.10;3.20;;;11.20;99.90;;;;;;5072651;28;20197;-72
2021/05/28 02:46:33;;;;;;;4.97;2.90;;;11.10;99.90;;;;;;5072423;28;20815;-72
2021/05/28 02:48:59;;;;;;;5.20;2.63;;;11.10;99.90;;;;;;5072977;28;20177;-71
2021/05/28 02:51:25;;;;;;;5.77;2.53;;;11.10;99.90;;;;;;5072733;28;20548;-71
2021/05/28 02:53:50;;;;;;;3.47;2.70;;;11.10;99.90;;;;;;5072749;28;20252;-71
2021/05/28 02:56:16;;;;;;;5.67;3.40;;;11.10;99.90;;;;;;5073446;28;20178;-71
2021/05/28 02:58:41;;;;;;;4.07;2.87;;;11.10;99.90;;;;;;5073481;28;20169;-72
2021/05/28 03:01:07;;;;;;;6.47;3.30;;;11.20;99.90;;;;;;5072325;28;20637;-72
2021/05/28 03:03:32;;;;;;;3.70;2.63;;;11.20;99.90;;;;;;5072610;28;20238;-72
2021/05/28 03:05:58;;;;;;;4.40;2.40;;;11.20;99.90;;;;;;5072104;28;20208;-71
2021/05/28 03:08:26;;;;;;;3.27;2.30;;;11.20;99.90;;;;;;5072264;28;20173;-71
2021/05/28 03:10:52;;;;;;;3.93;2.73;;;11.20;99.90;;;;;;5072802;28;20169;-71
2021/05/28 03:13:18;;;;;;;4.73;2.60;;;11.20;99.90;;;;;;5075517;28;20177;-71
2021/05/28 03:15:43;;;;;;;4.73;2.00;;;11.20;99.90;;;;;;5075466;28;20591;-71
2021/05/28 03:18:17;;;;;;;3.77;2.23;;;11.30;99.90;;;;;;5076008;28;20184;-71
2021/05/28 03:20:47;;;;;;;5.00;2.33;;;11.30;99.90;;;;;;5076729;28;20176;-71
2021/05/28 03:23:13;;;;;;;5.60;2.47;;;11.30;99.90;;;;;;5076889;28;20201;-69
2021/05/28 03:25:40;;;;;;;2.50;2.00;;;11.30;99.90;;;;;;5058752;28;20289;-70
2021/05/28 03:28:05;;;;;;;4.13;2.40;;;11.30;99.90;;;;;;5059189;28;20200;-70
2021/05/28 03:30:31;;;;;;;4.90;2.17;;;11.30;99.90;;;;;;5073458;28;20172;-70
2021/05/28 03:32:56;;;;;;;6.13;1.93;;;11.30;99.90;;;;;;5072614;28;20197;-70
2021/05/28 03:35:22;;;;;;;3.73;2.20;;;11.40;99.90;;;;;;5072018;28;20602;-70
2021/05/28 03:37:47;;;;;;;2.30;1.97;;;11.40;99.90;;;;;;5072194;28;20619;-71
2021/05/28 03:40:13;;;;;;;3.37;2.10;;;11.40;99.90;;;;;;5071465;28;20184;-70
2021/05/28 03:42:39;;;;;;;4.23;2.60;;;11.40;99.90;;;;;;5071759;28;20177;-71
2021/05/28 03:45:06;;;;;;;4.67;2.60;;;11.30;99.90;;;;;;5071648;28;20228;-70
2021/05/28 03:47:32;;;;;;;3.23;2.30;;;11.30;99.90;;;;;;5071505;28;20193;-71
2021/05/28 03:49:58;;;;;;;4.40;2.40;;;11.30;99.90;;;;;;5071635;28;20593;-70
2021/05/28 03:52:24;;;;;;;5.70;2.70;;;11.30;99.90;;;;;;5071345;28;20197;-71
2021/05/28 03:54:49;;;;;;;2.83;2.53;;;11.40;99.90;;;;;;5071764;28;20221;-71
2021/05/28 03:57:15;;;;;;;4.80;3.23;;;11.40;99.90;;;;;;5071709;28;20222;-71
2021/05/28 03:59:40;;;;;;;6.20;2.50;;;11.40;99.90;;;;;;5082328;28;20551;-70
2021/05/28 04:02:06;;;;;;;4.80;3.00;;;11.40;99.90;;;;;;5079783;28;20582;-71
2021/05/28 04:04:33;;;;;;;3.70;2.90;;;11.40;99.90;;;;;;5072352;28;20240;-70
2021/05/28 04:06:59;;;;;;;7.00;3.00;;;11.40;99.90;;;;;;5071647;28;20543;-71
2021/05/28 04:09:24;;;;;;;4.27;3.43;;;11.50;99.90;;;;;;5053489;28;20191;-70
2021/05/28 04:11:50;;;;;;;4.60;3.30;;;11.50;99.90;;;;;;5071299;28;20267;-70
2021/05/28 04:14:16;;;;;;;7.57;4.13;;;11.50;99.90;;;;;;5071488;28;20216;-70
2021/05/28 04:16:41;;;;;;;5.17;2.87;;;11.60;99.90;;;;;;5071712;28;20199;-71
2021/05/28 04:19:08;;;;;;;3.60;3.20;;;11.60;99.90;;;;;;5071405;28;20548;-71
2021/05/28 04:21:33;;;;;;;6.00;3.37;;;11.60;99.90;;;;;;5071309;28;20180;-71
2021/05/28 04:24:00;;;;;;;3.93;3.40;;;11.60;99.90;;;;;;5070982;28;20267;-70
2021/05/28 04:26:26;;;;;;;4.20;3.20;;;11.70;99.90;;;;;;5053237;28;20657;-70
2021/05/28 04:28:51;;;;;;;5.33;3.23;;;11.70;99.90;;;;;;5071058;28;20234;-71
2021/05/28 04:31:17;;;;;;;8.23;3.10;;;11.80;99.90;;;;;;5070957;28;20310;-71
2021/05/28 04:33:42;;;;;;;4.03;3.20;;;11.80;99.90;;;;;;5071076;28;20165;-70
2021/05/28 04:36:08;;;;;;;5.27;3.30;;;11.80;99.90;;;;;;5070869;28;20173;-70
2021/05/28 04:38:33;;;;;;;4.20;2.97;;;11.90;99.90;;;;;;5071099;28;20228;-71
2021/05/28 04:40:59;;;;;;;5.53;2.83;;;12.00;99.90;;;;;;5072034;28;20192;-71
2021/05/28 04:43:24;;;;;;;4.57;2.83;;;11.90;99.90;;;;;;5055144;28;20629;-71
2021/05/28 04:45:50;;;;;;;5.77;3.10;;;12.00;99.90;;;;;;5071292;28;20193;-70
2021/05/28 04:48:15;;;;;;;4.10;3.10;;;12.00;99.90;;;;;;5071095;28;20232;-71
2021/05/28 04:50:41;;;;;;;4.50;2.70;;;12.10;99.90;;;;;;5070525;28;20169;-71
2021/05/28 04:53:07;;;;;;;5.43;2.50;;;12.20;99.90;;;;;;5072587;28;20170;-70
2021/05/28 04:55:34;;;;;;;3.10;2.43;;;12.20;99.90;;;;;;5075454;28;20544;-71
2021/05/28 04:58:00;;;;;;;4.27;2.30;;;12.30;99.90;;;;;;5075512;28;20169;-71
2021/05/28 05:00:27;;;;;;;6.80;2.20;;;12.40;99.90;;;;;;5075077;28;20169;-71
2021/05/28 05:02:53;;;;;;;4.13;2.50;;;12.50;99.90;;;;;;5075127;28;20260;-71
2021/05/28 05:05:19;;;;;;;2.77;2.17;;;12.50;99.90;;;;;;5075107;28;20223;-71
2021/05/28 05:07:45;;;;;;;2.70;2.37;;;12.70;99.90;;;;;;5074837;28;20565;-71
2021/05/28 05:10:11;;;;;;;3.47;2.07;;;12.80;99.90;;;;;;5074432;28;20243;-71
2021/05/28 05:12:40;;;;;;;1.87;1.70;;;12.90;99.90;;;;;;5074404;28;20169;-71
2021/05/28 05:15:07;;;;;;;2.30;1.97;;;12.90;99.90;;;;;;5074375;28;20189;-70
2021/05/28 05:17:32;;;;;;;7.23;2.27;;;13.00;99.90;;;;;;5074398;28;20192;-71
2021/05/28 05:19:58;;;;;;;2.13;1.83;;;13.20;99.90;;;;;;5074241;28;20633;-71
2021/05/28 05:22:23;;;;;;;2.73;1.80;;;13.40;99.90;;;;;;5073922;28;20180;-70
2021/05/28 05:24:49;;;;;;;2.57;1.80;;;13.40;99.90;;;;;;5074174;28;20193;-70
2021/05/28 05:27:15;;;;;;;3.13;1.50;;;13.40;99.90;;;;;;5073957;28;20212;-71
2021/05/28 05:29:40;;;;;;;3.27;1.70;;;13.50;99.90;;;;;;5074243;28;20580;-70
2021/05/28 05:32:06;;;;;;;2.83;1.83;;;13.60;99.90;;;;;;5074277;28;20695;-71
2021/05/28 05:34:32;;;;;;;1.30;1.20;;;13.70;99.90;;;;;;5080830;28;20227;-70
2021/05/28 05:37:00;;;;;;;3.30;1.40;;;13.60;99.90;;;;;;5096198;28;20406;-69
2021/05/28 05:39:27;;;;;;;3.50;2.10;;;13.50;99.90;;;;;;5096026;28;20269;-70
2021/05/28 05:41:52;;;;;;;3.67;1.60;;;13.60;99.90;;;;;;5097501;28;20179;-70
2021/05/28 05:44:18;;;;;;;2.97;1.50;;;13.60;99.90;;;;;;5099041;28;20189;-70
2021/05/28 05:46:45;;;;;;;2.00;1.73;;;13.60;99.90;;;;;;5099018;28;20204;-71
2021/05/28 05:49:10;;;;;;;1.90;1.40;;;13.70;99.90;;;;;;5094418;28;20180;-71
2021/05/28 05:51:36;;;;;;;2.07;1.80;;;14.00;99.90;;;;;;5095466;28;20181;-71
2021/05/28 05:54:02;;;;;;;3.87;1.67;;;14.20;99.90;;;;;;5084894;28;20261;-71
2021/05/28 05:56:27;;;;;;;1.60;1.50;;;14.60;99.90;;;;;;5073820;28;20629;-69
2021/05/28 05:58:53;;;;;;;1.73;1.40;;;14.80;99.90;;;;;;5073973;28;20173;-69
2021/05/28 06:01:19;;;;;;;2.90;1.60;;;14.80;99.90;;;;;;5073275;28;20177;-69
2021/05/28 06:03:45;;;;;;;1.70;1.33;;;15.10;99.90;;;;;;5073466;28;20529;-69
2021/05/28 06:06:10;;;;;;;2.20;1.57;;;15.30;99.90;;;;;;5073915;28;20169;-72
2021/05/28 06:08:36;;;;;;;1.40;1.30;;;15.20;99.90;;;;;;5073408;28;20215;-70
2021/05/28 06:11:01;;;;;;;3.00;1.70;;;15.10;99.90;;;;;;5073003;28;20675;-70
2021/05/28 06:13:27;;;;;;;2.23;1.63;;;15.40;99.90;;;;;;5072988;28;20165;-71
2021/05/28 06:15:53;;;;;;;2.77;1.73;;;15.60;99.90;;;;;;5073209;28;20224;-71
2021/05/28 06:18:18;;;;;;;1.47;1.37;;;15.60;99.90;;;;;;5073486;28;20181;-71
2021/05/28 06:20:45;;;;;;;1.67;1.40;;;15.20;99.90;;;;;;5073658;28;20214;-71
2021/05/28 06:23:11;;;;;;;3.43;2.37;;;15.00;99.90;;;;;;5073893;28;20235;-71
2021/05/28 06:25:41;;;;;;;2.20;1.80;;;14.80;99.90;;;;;;5057274;28;20204;-71
2021/05/28 06:28:07;;;;;;;3.17;1.93;;;14.80;99.90;;;;;;5073702;28;20192;-71
2021/05/28 06:30:32;;;;;;;1.83;1.70;;;14.80;99.90;;;;;;5076206;28;20173;-70
2021/05/28 06:33:05;;;;;;;1.70;1.60;;;14.80;99.90;;;;;;5076584;28;20549;-70
2021/05/28 06:35:35;;;;;;;2.40;1.63;;;15.10;99.90;;;;;;5073077;28;20215;-70
2021/05/28 06:38:00;;;;;;;1.70;1.60;;;15.60;99.90;;;;;;5055158;28;20209;-70
2021/05/28 06:40:26;;;;;;;2.87;1.70;;;16.10;99.90;;;;;;5072459;28;20235;-71
2021/05/28 06:42:52;;;;;;;3.63;1.80;;;16.40;99.90;;;;;;5072443;28;20660;-71
2021/05/28 06:45:18;;;;;;;1.93;1.73;;;16.20;99.90;;;;;;5072406;28;20193;-71
2021/05/28 06:47:45;;;;;;;1.60;1.23;;;16.10;99.90;;;;;;5073438;28;20748;-79
2021/05/28 06:50:13;;;;;;;2.30;2.00;;;15.70;99.90;;;;;;5073874;28;20620;-71
2021/05/28 06:52:38;;;;;;;1.90;1.80;;;15.40;99.90;;;;;;5072387;28;20165;-71
2021/05/28 06:55:05;;;;;;;2.10;1.80;;;15.80;99.90;;;;;;5071942;28;20235;-71
2021/05/28 06:57:30;;;;;;;2.37;2.00;;;16.10;99.90;;;;;;5072197;28;20597;-71
2021/05/28 06:59:56;;;;;;;1.73;1.63;;;16.40;99.90;;;;;;5054222;28;20205;-72
2021/05/28 07:02:22;;;;;;;3.27;1.77;;;16.50;99.90;;;;;;5071847;28;20238;-71
2021/05/28 07:04:48;;;;;;;2.00;1.80;;;16.40;99.90;;;;;;5093888;22;20308;-70
2021/05/28 07:07:14;;;;;;;2.53;1.83;;;16.40;99.90;;;;;;5072961;28;20671;-70
2021/05/28 07:09:39;;;;;;;2.80;2.33;;;16.30;99.90;;;;;;5072043;28;20169;-70
2021/05/28 07:12:05;;;;;;;4.27;2.00;;;15.70;99.90;;;;;;5071809;28;20165;-70
2021/05/28 07:14:30;;;;;;;4.10;2.27;;;15.40;99.90;;;;;;5071434;28;20193;-70
2021/05/28 07:16:56;;;;;;;3.00;2.17;;;15.60;99.90;;;;;;5071186;28;20245;-70
2021/05/28 07:19:21;;;;;;;2.30;2.10;;;15.60;99.90;;;;;;5072040;28;20188;-70
2021/05/28 07:21:47;;;;;;;2.73;2.00;;;15.80;99.90;;;;;;5071482;28;20697;-70
2021/05/28 07:24:12;;;;;;;4.10;2.70;;;15.90;99.90;;;;;;5071743;28;20260;-70
2021/05/28 07:26:38;;;;;;;3.97;1.93;;;15.80;99.90;;;;;;5071965;28;20203;-70
2021/05/28 07:29:04;;;;;;;2.50;2.30;;;16.00;99.90;;;;;;5071957;28;20176;-70
2021/05/28 07:31:30;;;;;;;2.57;2.20;;;16.20;99.90;;;;;;5071536;28;20183;-70
2021/05/28 07:33:55;;;;;;;3.50;2.30;;;16.50;99.90;;;;;;5071624;28;20173;-70
2021/05/28 07:36:23;;;;;;;2.53;2.33;;;16.70;99.90;;;;;;5071776;28;20185;-70
2021/05/28 07:38:49;;;;;;;4.23;1.90;;;16.60;99.90;;;;;;5071781;28;20176;-70
2021/05/28 07:41:14;;;;;;;2.53;2.20;;;16.80;99.90;;;;;;5071232;28;20165;-70
2021/05/28 07:43:41;;;;;;;3.43;2.40;;;16.90;99.90;;;;;;5071283;28;20169;-70
2021/05/28 07:46:06;;;;;;;3.50;2.00;;;16.80;99.90;;;;;;5070776;28;20223;-70
2021/05/28 07:48:32;;;;;;;3.50;2.20;;;16.70;99.90;;;;;;5071175;28;20184;-70
2021/05/28 07:51:00;;;;;;;4.53;2.30;;;16.60;99.90;;;;;;5070912;28;20173;-70
2021/05/28 07:53:27;;;;;;;4.20;2.37;;;16.50;99.90;;;;;;5071126;28;20162;-70
2021/05/28 07:55:55;;;;;;;2.80;2.50;;;16.40;99.90;;;;;;5071177;28;20560;-70
2021/05/28 07:58:21;;;;;;;2.90;2.47;;;16.30;99.90;;;;;;5052891;28;20173;-70
2021/05/28 08:00:46;;;;;;;2.30;2.10;;;16.10;99.90;;;;;;5070820;28;20235;-70
2021/05/28 08:03:12;;;;;;;2.43;2.23;;;16.10;99.90;;;;;;5070823;28;20176;-70
2021/05/28 08:05:38;;;;;;;4.07;2.43;;;16.20;99.90;;;;;;5070717;28;20208;-70
2021/05/28 08:08:09;;;;;;;3.33;2.40;;;16.60;99.90;;;;;;5070469;28;20767;-71
2021/05/28 08:10:34;;;;;;;2.60;2.40;;;16.60;99.90;;;;;;5070569;28;20176;-70
2021/05/28 08:13:00;;;;;;;2.43;1.90;;;16.60;99.90;;;;;;5070600;28;20544;-70
2021/05/28 08:15:26;;;;;;;2.73;2.20;;;16.80;99.90;;;;;;5070711;28;20185;-70
2021/05/28 08:17:51;;;;;;;2.23;1.80;;;16.50;99.90;;;;;;5070553;28;20637;-70
2021/05/28 08:20:17;;;;;;;2.57;2.00;;;17.00;99.90;;;;;;5071086;28;20201;-70
2021/05/28 08:22:44;;;;;;;10.13;2.87;;;17.40;99.90;;;;;;5070085;28;20172;-70
2021/05/28 08:25:11;;;;;;;2.27;2.07;;;17.20;99.90;;;;;;5070440;28;20201;-70
2021/05/28 08:27:36;;;;;;;2.40;2.00;;;17.20;99.90;;;;;;5069492;28;20193;-69
2021/05/28 08:30:04;;;;;;;1.70;1.60;;;17.30;99.90;;;;;;5070426;28;20223;-70
2021/05/28 08:32:29;;;;;;;2.10;1.80;;;17.40;99.90;;;;;;5069996;28;20637;-70
2021/05/28 08:34:55;;;;;;;3.97;2.10;;;17.10;99.90;;;;;;5070123;28;20203;-70
2021/05/28 08:37:20;;;;;;;2.63;1.70;;;17.50;99.90;;;;;;5070895;28;20173;-70
2021/05/28 08:39:46;;;;;;;3.23;2.00;;;17.80;99.90;;;;;;5070765;28;20180;-70
2021/05/28 08:42:11;;;;;;;2.40;1.97;;;17.50;99.90;;;;;;5070664;28;20165;-70
2021/05/28 08:44:38;;;;;;;2.10;2.00;;;17.30;99.90;;;;;;5070961;28;20189;-70
2021/05/28 08:47:04;;;;;;;2.33;1.80;;;17.00;99.90;;;;;;5070539;28;20204;-70
2021/05/28 08:49:30;;;;;;;3.17;1.80;;;17.20;99.90;;;;;;5070644;28;20173;-70
2021/05/28 08:52:00;;;;;;;3.40;2.00;;;17.10;99.90;;;;;;5070423;28;20207;-71
2021/05/28 08:54:26;;;;;;;2.77;2.27;;;17.10;99.90;;;;;;5070684;28;20200;-70
2021/05/28 08:56:53;;;;;;;2.33;1.80;;;17.40;99.90;;;;;;5070689;28;20573;-70
2021/05/28 08:59:19;;;;;;;3.27;2.20;;;17.60;99.90;;;;;;5070470;28;20177;-71
2021/05/28 09:01:45;;;;;;;2.90;2.50;;;17.40;99.90;;;;;;5070556;28;20185;-70
2021/05/28 09:04:11;;;;;;;3.13;2.27;;;17.40;99.90;;;;;;5052377;28;20188;-71
2021/05/28 09:06:43;;;;;;;4.47;2.17;;;16.90;99.90;;;;;;5052715;28;20200;-71
2021/05/28 09:09:09;;;;;;;2.53;2.03;;;16.90;99.90;;;;;;5070544;28;20169;-70
2021/05/28 09:11:49;;;;;;;3.07;2.27;;;17.10;99.90;;;;;;5070489;28;20173;-71
2021/05/28 09:14:35;;;;;;;2.57;1.70;;;17.20;99.90;;;;;;5071899;28;20222;-70
2021/05/28 09:17:04;;;;;;;1.87;1.77;;;16.90;99.90;;;;;;5070699;28;20177;-70
2021/05/28 09:19:30;;;;;;;2.77;2.00;;;17.40;99.90;;;;;;5070839;28;20177;-70
2021/05/28 09:22:01;;;;;;;2.73;1.93;;;16.90;99.90;;;;;;5069788;28;20179;-70
2021/05/28 09:24:39;;;;;;;2.10;1.90;;;17.10;99.90;;;;;;5070447;28;20254;-70
2021/05/28 09:27:24;;;;;;;2.00;1.83;;;17.50;99.90;;;;;;5070237;28;20233;-70
2021/05/28 09:30:13;;;;;;;1.77;1.50;;;17.40;99.90;;;;;;5071226;28;20283;-76
2021/05/28 09:32:43;;;;;;;2.60;1.47;;;17.50;99.90;;;;;;5070335;28;20644;-70
2021/05/28 09:35:12;;;;;;;1.83;1.73;;;17.40;99.90;;;;;;5070305;28;20204;-71
2021/05/28 09:37:46;;;;;;;4.53;1.93;;;17.60;99.90;;;;;;5070275;28;20212;-71
2021/05/28 09:40:27;;;;;;;2.33;1.63;;;17.90;99.90;;;;;;5073781;28;20184;-70
2021/05/28 09:43:00;;;;;;;3.30;2.20;;;18.10;99.90;;;;;;5074572;28;20165;-70
2021/05/28 09:45:38;;;;;;;2.50;2.00;;;18.40;99.90;;;;;;5073851;28;20197;-71
2021/05/28 09:48:14;;;;;;;2.37;2.00;;;18.40;99.90;;;;;;5073863;28;20208;-70
2021/05/28 09:50:50;;;;;;;1.53;1.40;;;19.10;99.90;;;;;;5058816;28;20432;-71
2021/05/28 09:53:36;;;;;;;1.97;1.80;;;19.30;99.90;;;;;;5077018;28;20180;-71
2021/05/28 09:56:27;;;;;;;3.27;1.90;;;18.80;99.90;;;;;;5080231;28;20203;-71
2021/05/28 09:58:59;;;;;;;2.47;2.27;;;19.00;99.90;;;;;;5079101;28;20186;-70
2021/05/28 10:01:25;;;;;;;3.87;1.93;;;19.10;99.90;;;;;;5059659;28;20182;-69
2021/05/28 10:04:07;;;;;;;2.40;1.60;;;18.80;99.90;;;;;;5080920;28;20185;-70
2021/05/28 10:06:36;;;;;;;1.90;1.80;;;18.90;99.90;;;;;;5080053;28;20265;-70
2021/05/28 10:09:20;;;;;;;2.37;1.73;;;19.20;99.90;;;;;;5077795;28;20165;-70
2021/05/28 10:11:46;;;;;;;1.70;1.60;;;19.20;99.90;;;;;;5077884;28;20232;-69
2021/05/28 10:14:11;;;;;;;1.90;1.80;;;19.50;99.90;;;;;;5078214;28;20209;-70
2021/05/28 10:16:38;;;;;;;6.00;1.97;;;19.80;99.90;;;;;;5079001;28;20185;-70
2021/05/28 10:19:04;;;;;;;4.43;2.10;;;19.70;99.90;;;;;;5078847;28;20190;-70
2021/05/28 10:21:30;;;;;;;3.17;1.90;;;19.10;99.90;;;;;;5078871;28;20644;-70
2021/05/28 10:23:58;;;;;;;2.57;2.13;;;19.00;99.90;;;;;;5079277;28;20191;-70
2021/05/28 10:26:27;;;;;;;4.37;2.50;;;18.50;99.90;;;;;;5078908;28;20545;-71
2021/05/28 10:28:53;;;;;;;2.40;2.20;;;18.10;99.90;;;;;;5079575;28;20182;-71
2021/05/28 10:31:18;;;;;;;2.73;1.90;;;18.40;99.90;;;;;;5078383;28;20177;-71
2021/05/28 10:33:53;;;;;;;4.43;2.57;;;18.20;99.90;;;;;;5079882;28;20303;-70
2021/05/28 10:36:39;;;;;;;3.70;2.60;;;18.30;99.90;;;;;;5078121;28;20193;-71
2021/05/28 10:39:07;;;;;;;2.83;2.53;;;18.60;99.90;;;;;;5075278;28;20266;-70
2021/05/28 10:41:34;;;;;;;4.47;2.40;;;18.80;99.90;;;;;;5072559;28;20265;-70
2021/05/28 10:44:03;;;;;;;2.03;1.83;;;19.20;99.90;;;;;;5054637;28;20188;-70
2021/05/28 10:46:28;;;;;;;6.53;2.90;;;18.90;99.90;;;;;;5072534;28;20468;-70
2021/05/28 10:49:06;;;;;;;3.40;2.20;;;18.60;99.90;;;;;;5072729;28;20173;-69
2021/05/28 10:51:32;;;;;;;2.27;2.07;;;18.70;99.90;;;;;;5053903;28;20276;-71
2021/05/28 10:53:57;;;;;;;4.37;2.20;;;18.50;99.90;;;;;;5055286;28;20173;-71
2021/05/28 10:56:44;;;;;;;3.27;2.93;;;18.60;99.90;;;;;;5072734;28;20196;-70
2021/05/28 10:59:21;;;;;;;3.03;2.33;;;19.00;99.90;;;;;;5072894;28;20165;-71
2021/05/28 11:01:56;;;;;;;3.20;2.10;;;19.30;99.90;;;;;;5053859;28;20177;-71
2021/05/28 11:04:24;;;;;;;2.10;1.90;;;19.00;99.90;;;;;;5073042;28;20174;-71
2021/05/28 11:06:56;;;;;;;2.47;2.20;;;19.10;99.90;;;;;;5072790;28;20197;-71
2021/05/28 11:09:38;;;;;;;3.70;3.40;;;19.50;99.90;;;;;;5072724;28;20185;-71
2021/05/28 11:12:07;;;;;;;2.40;2.20;;;19.40;99.90;;;;;;5071884;28;20174;-71
2021/05/28 11:14:37;;;;;;;2.47;2.27;;;19.50;99.90;;;;;;5053920;28;20189;-70
2021/05/28 11:17:03;;;;;;;2.40;2.20;;;19.10;99.90;;;;;;5072167;28;20531;-71
2021/05/28 11:19:33;;;;;;;2.30;2.10;;;19.10;99.90;;;;;;5072667;28;20245;-70
2021/05/28 11:22:01;;;;;;;1.80;1.70;;;18.50;99.90;;;;;;5071902;28;20183;-71
2021/05/28 11:24:45;;;;;;;2.23;2.00;;;18.50;99.90;;;;;;5071908;28;20195;-71
2021/05/28 11:27:35;;;;;;;2.30;1.93;;;18.80;99.90;;;;;;5072083;28;20336;-69
2021/05/28 11:30:03;;;;;;;2.47;2.17;;;19.10;99.90;;;;;;5071399;28;20173;-70
2021/05/28 11:32:43;;;;;;;1.87;1.60;;;19.20;99.90;;;;;;5071385;28;20263;-70
2021/05/28 11:35:14;;;;;;;1.90;1.80;;;19.10;99.90;;;;;;5071536;28;20747;-70
2021/05/28 11:37:49;;;;;;;6.33;1.70;;;18.90;99.90;;;;;;5071635;28;20173;-70
2021/05/28 11:40:19;;;;;;;2.00;1.80;;;19.10;99.90;;;;;;5071668;28;20195;-70
2021/05/28 11:42:45;;;;;;;1.77;1.67;;;19.10;99.90;;;;;;5071311;28;20165;-70
2021/05/28 11:45:13;;;;;;;1.93;1.73;;;19.20;99.90;;;;;;5071511;28;20551;-70
2021/05/28 11:47:39;;;;;;;3.27;1.60;;;19.40;99.90;;;;;;5070996;28;20205;-70
2021/05/28 11:50:08;;;;;;;2.00;1.73;;;19.80;99.90;;;;;;5072044;28;20261;-71
2021/05/28 11:52:33;;;;;;;2.33;1.77;;;19.70;99.90;;;;;;5071388;28;20173;-70
2021/05/28 11:55:13;;;;;;;2.37;2.10;;;19.50;99.90;;;;;;5071651;28;20243;-71
2021/05/28 11:57:39;;;;;;;2.00;1.80;;;19.60;99.90;;;;;;5071504;28;20272;-71
2021/05/28 12:00:09;;;;;;;1.40;1.30;;;19.50;99.90;;;;;;5071213;28;20174;-70
2021/05/28 12:02:39;;;;;;;2.03;1.70;;;18.80;99.90;;;;;;5070645;28;20197;-70
2021/05/28 12:05:16;;;;;;;2.40;1.90;;;19.00;99.90;;;;;;5072542;28;20312;-70
2021/05/28 12:07:42;;;;;;;1.37;1.27;;;19.20;99.90;;;;;;5072496;28;20207;-70
2021/05/28 12:10:09;;;;;;;1.93;1.70;;;18.80;99.90;;;;;;5072740;28;20226;-70
2021/05/28 12:12:52;;;;;;;2.37;1.90;;;18.80;99.90;;;;;;5071363;28;20638;-71
2021/05/28 12:15:20;;;;;;;3.00;1.57;;;19.20;99.90;;;;;;5071681;28;20182;-71
2021/05/28 12:17:46;;;;;;;1.70;1.60;;;19.10;99.90;;;;;;5071591;28;20645;-71
2021/05/28 12:20:32;;;;;;;1.60;1.50;;;19.20;99.90;;;;;;5071945;28;20653;-70
2021/05/28 12:22:57;;;;;;;2.20;2.00;;;19.00;99.90;;;;;;5072845;28;20201;-70
2021/05/28 12:25:23;;;;;;;2.23;2.03;;;18.80;99.90;;;;;;5071949;28;20611;-70
2021/05/28 12:27:49;;;;;;;2.60;2.30;;;18.80;99.90;;;;;;5071723;28;20685;-71
2021/05/28 12:30:22;;;;;;;2.57;1.80;;;18.60;99.90;;;;;;5071650;28;20176;-70
2021/05/28 12:32:47;;;;;;;2.80;1.80;;;18.40;99.90;;;;;;5071086;28;20173;-70
2021/05/28 12:35:13;;;;;;;2.77;1.90;;;18.50;99.90;;;;;;5071211;28;20280;-70
2021/05/28 12:37:58;;;;;;;2.93;2.03;;;18.80;99.90;;;;;;5072895;28;20172;-71
2021/05/28 12:40:26;;;;;;;1.93;1.80;;;18.80;99.90;;;;;;5070982;28;20207;-71
2021/05/28 12:42:55;;;;;;;1.93;1.80;;;18.70;99.90;;;;;;5070866;28;20182;-70
2021/05/28 12:45:31;;;;;;;2.07;1.77;;;18.90;99.90;;;;;;5070557;28;20193;-70
2021/05/28 12:47:56;;;;;;;1.67;1.57;;;19.20;99.90;;;;;;5070731;28;20204;-70
2021/05/28 12:50:32;;;;;;;1.87;1.77;;;19.50;99.90;;;;;;5070552;28;20170;-70
2021/05/28 12:52:58;;;;;;;2.90;1.60;;;19.70;99.90;;;;;;5070771;28;20273;-71
2021/05/28 12:55:28;;;;;;;2.03;1.90;;;20.00;99.90;;;;;;5070858;28;20217;-70
2021/05/28 12:57:54;;;;;;;1.93;1.80;;;19.90;99.90;;;;;;5071108;28;20270;-70
2021/05/28 13:00:36;;;;;;;2.47;2.00;;;20.10;99.90;;;;;;5070636;28;20258;-70
2021/05/28 13:03:03;;;;;;;2.47;2.10;;;20.30;99.90;;;;;;5071220;28;20199;-72
2021/05/28 13:05:33;;;;;;;3.03;2.00;;;20.30;99.90;;;;;;5094137;22;20285;-72